Main page
METAR-TAF:

METAR-TAF

Airports :

Bastia, France

Bastia – Poretta Airport

latitude: 42-33N, longitude: 009-29E, elevation: 8 m

Current weather observation

The report was made 27 minutes ago, at 11:30 UTC
Wind 6 kt from the Northeast, varying between North and East
Temperature 21°C
Humidity 78%
Pressure 1013 hPa
Visibility 10 km or more
Broken clouds at a height of 2000 ft

METAR: LFKB 261130Z AUTO 04006KT 350V100 9999 BKN020 21/17 Q1013 NOSIG

Time: 13:57 (11:57 UTC)

Forecast

The report was made 3 hours and 57 minutes ago, at 08:00 UTC
Forecast valid from 26 at 09 UTC to 27 at 09 UTC
Wind 8 kt from the East/Southeast
Visibility 10 km or more
Few clouds at a height of 1700 ft
Probability 40% :
Temporary
from 26 at 21 UTC to 27 at 06 UTC
Wind 1 kt from variable directions
Scattered clouds at a height of 600 ft
Broken clouds at a height of 1300 ft

TAF: LFKB 260800Z 2609/2709 12008KT 9999 FEW017 PROB40 TEMPO 2621/2706 VRB01KT SCT006 BKN013 TX22/2613Z TN13/2705Z

Weather observations and forecasts of more than 4000 airports (METAR and TAF reports).

The available stations are represented by yellow and red dots on the map.

Hover mouse over dot to see the name of the station.

Then click to see weather observations and forecasts.

To change the map : click on the green buttons with a black cross to zoom in, on the green button with a dash to zoom out, or on the green arrows for adjacent maps.


METAR-TAF: